Time;durP1;ratioP1;P1;durP2;ratioP2;P2;SDS_P1;SDS_P2;PMS_P1;PMS_P2;Temp;Humidity;BMP_temperature;BMP_pressure;BME280_temperature;BME280_humidity;BME280_pressure;Samples;Min_cycle;Max_cycle;Signal;HPM_P1;HPM_P2
2024/01/09 00:00:23;;;;;;;16.93;5.43;;;;;;;;;;4950029;29;20035;-77
2024/01/09 00:02:48;;;;;;;17.57;5.33;;;;;;;;;;4951565;29;20042;-77
2024/01/09 00:05:15;;;;;;;15.70;4.90;;;;;;;;;;4932499;29;20043;-77
2024/01/09 00:07:41;;;;;;;15.33;5.20;;;;;;;;;;4977196;28;20512;-77
2024/01/09 00:10:07;;;;;;;15.60;4.67;;;;;;;;;;4953375;28;20093;-77
2024/01/09 00:12:32;;;;;;;12.77;5.20;;;;;;;;;;4988512;28;20126;-78
2024/01/09 00:14:58;;;;;;;13.97;5.33;;;;;;;;;;4951442;28;20074;-78
2024/01/09 00:17:24;;;;;;;11.30;4.90;;;;;;;;;;4971005;28;20123;-77
2024/01/09 00:19:49;;;;;;;13.53;4.73;;;;;;;;;;4969391;28;20035;-77
2024/01/09 00:22:15;;;;;;;13.13;4.63;;;;;;;;;;4946605;29;20126;-77
2024/01/09 00:24:40;;;;;;;12.53;4.80;;;;;;;;;;4941142;29;20031;-77
2024/01/09 00:27:06;;;;;;;9.77;4.20;;;;;;;;;;4940567;29;20051;-78
2024/01/09 00:29:35;;;;;;;9.33;4.30;;;;;;;;;;4978331;28;20037;-78
2024/01/09 00:32:00;;;;;;;11.13;4.43;;;;;;;;;;4985238;28;20030;-77
2024/01/09 00:34:26;;;;;;;13.83;4.87;;;;;;;;;;4935008;28;20031;-77
2024/01/09 00:36:51;;;;;;;12.63;5.00;;;;;;;;;;4961413;28;20030;-78
2024/01/09 00:39:17;;;;;;;12.90;5.50;;;;;;;;;;4945205;29;20035;-78
2024/01/09 00:41:43;;;;;;;14.20;5.27;;;;;;;;;;4937300;28;20031;-77
2024/01/09 00:44:08;;;;;;;11.77;4.43;;;;;;;;;;4955628;28;20049;-77
2024/01/09 00:46:34;;;;;;;11.33;4.90;;;;;;;;;;4975186;28;20055;-77
2024/01/09 00:49:00;;;;;;;12.63;4.50;;;;;;;;;;4972632;28;20072;-77
2024/01/09 00:51:25;;;;;;;9.73;4.20;;;;;;;;;;4953809;28;20065;-78
2024/01/09 00:53:51;;;;;;;14.93;4.80;;;;;;;;;;4960159;28;20041;-77
2024/01/09 00:57:06;;;;;;;11.87;4.80;;;;;;;;;;4968997;28;20047;-78
2024/01/09 01:00:35;;;;;;;19.67;5.30;;;;;;;;;;4961694;28;20106;-77
2024/01/09 01:03:58;;;;;;;13.00;4.53;;;;;;;;;;4943649;29;20039;-77
2024/01/09 01:25:49;;;;;;;10.07;4.03;;;;;;;;;;4993342;23;20034;-78
2024/01/09 01:28:15;;;;;;;12.83;5.20;;;;;;;;;;4947713;28;20513;-78
2024/01/09 01:30:40;;;;;;;14.67;5.73;;;;;;;;;;4966158;28;20115;-77
2024/01/09 01:33:06;;;;;;;15.67;5.27;;;;;;;;;;4967017;28;20030;-76
2024/01/09 01:35:31;;;;;;;12.53;5.40;;;;;;;;;;4929571;28;20031;-77
2024/01/09 01:37:57;;;;;;;14.83;5.37;;;;;;;;;;4972238;28;20035;-77
2024/01/09 01:40:24;;;;;;;12.77;5.00;;;;;;;;;;4956893;29;20027;-78
2024/01/09 01:42:50;;;;;;;13.90;4.77;;;;;;;;;;4957161;28;20457;-77
2024/01/09 01:45:19;;;;;;;10.73;4.40;;;;;;;;;;4936853;29;20040;-77
2024/01/09 01:47:47;;;;;;;14.83;4.20;;;;;;;;;;4973807;28;20020;-78
2024/01/09 01:50:17;;;;;;;11.53;5.27;;;;;;;;;;4975915;28;20055;-77
2024/01/09 01:52:44;;;;;;;12.47;4.97;;;;;;;;;;4957800;28;20034;-77
2024/01/09 01:55:17;;;;;;;15.53;5.00;;;;;;;;;;4940944;28;20035;-77
2024/01/09 01:57:45;;;;;;;12.32;3.65;;;;;;;;;;4928317;28;20027;-77
2024/01/09 02:00:13;;;;;;;15.13;5.37;;;;;;;;;;4957745;28;20038;-77
2024/01/09 02:02:39;;;;;;;12.30;5.17;;;;;;;;;;4951621;28;20054;-77
2024/01/09 02:05:12;;;;;;;15.00;4.93;;;;;;;;;;4977603;28;20023;-77
2024/01/09 02:07:39;;;;;;;13.23;5.33;;;;;;;;;;4956913;29;20043;-77
2024/01/09 02:10:04;;;;;;;13.70;5.33;;;;;;;;;;4952696;28;20018;-78
2024/01/09 02:12:30;;;;;;;16.53;5.50;;;;;;;;;;4966471;28;20023;-77
2024/01/09 02:14:58;;;;;;;13.37;4.93;;;;;;;;;;4961713;29;20027;-77
2024/01/09 02:17:23;;;;;;;11.47;4.43;;;;;;;;;;4983718;28;20062;-77
2024/01/09 02:19:50;;;;;;;14.50;5.10;;;;;;;;;;4965694;28;20094;-78
2024/01/09 02:22:16;;;;;;;14.90;5.10;;;;;;;;;;4975284;28;20042;-78
2024/01/09 02:24:41;;;;;;;11.53;4.90;;;;;;;;;;4965651;28;20066;-78
2024/01/09 02:27:14;;;;;;;14.43;4.87;;;;;;;;;;4970205;28;20062;-77
2024/01/09 02:29:46;;;;;;;12.60;5.87;;;;;;;;;;4971287;28;20040;-78
2024/01/09 02:32:15;;;;;;;11.53;5.17;;;;;;;;;;4949975;28;20039;-77
2024/01/09 02:34:48;;;;;;;15.13;5.47;;;;;;;;;;4974312;28;20042;-77
2024/01/09 02:37:15;;;;;;;18.43;6.30;;;;;;;;;;4986661;28;20027;-77
2024/01/09 02:39:41;;;;;;;13.30;5.23;;;;;;;;;;4960761;28;20081;-77
2024/01/09 02:42:08;;;;;;;12.30;5.53;;;;;;;;;;4948068;28;20035;-77
2024/01/09 02:44:36;;;;;;;15.23;5.13;;;;;;;;;;4956116;28;20094;-77
2024/01/09 02:47:02;;;;;;;15.77;5.63;;;;;;;;;;4973057;29;20068;-77
2024/01/09 02:49:29;;;;;;;11.93;5.17;;;;;;;;;;4993592;28;20035;-77
2024/01/09 02:51:54;;;;;;;13.03;5.40;;;;;;;;;;4961979;28;20058;-77
2024/01/09 02:54:20;;;;;;;17.47;5.70;;;;;;;;;;4952491;28;20046;-77
2024/01/09 02:56:45;;;;;;;16.33;6.57;;;;;;;;;;4967180;29;20066;-77
2024/01/09 02:59:11;;;;;;;13.17;5.63;;;;;;;;;;4979037;28;20026;-77
2024/01/09 03:01:39;;;;;;;13.88;5.03;;;;;;;;;;4966539;28;20069;-76
2024/01/09 03:04:04;;;;;;;14.10;4.77;;;;;;;;;;4967038;28;20022;-77
2024/01/09 03:06:38;;;;;;;15.43;5.57;;;;;;;;;;4944328;29;20039;-77
2024/01/09 03:09:04;;;;;;;15.15;5.47;;;;;;;;;;4970018;28;20038;-77
2024/01/09 03:11:29;;;;;;;13.53;4.87;;;;;;;;;;4966421;28;20090;-77
2024/01/09 03:13:57;;;;;;;13.15;5.68;;;;;;;;;;4954328;28;20059;-77
2024/01/09 03:16:29;;;;;;;12.80;5.00;;;;;;;;;;4966220;29;20103;-77
2024/01/09 03:18:59;;;;;;;16.83;5.57;;;;;;;;;;4944818;29;20035;-77
2024/01/09 03:21:24;;;;;;;12.67;5.23;;;;;;;;;;4960106;29;20050;-77
2024/01/09 03:23:52;;;;;;;15.47;5.07;;;;;;;;;;4969698;28;20037;-77
2024/01/09 03:26:18;;;;;;;15.10;5.50;;;;;;;;;;4943186;28;20039;-78
2024/01/09 03:28:43;;;;;;;15.13;6.07;;;;;;;;;;4950221;29;20023;-77
2024/01/09 03:31:24;;;;;;;13.63;5.93;;;;;;;;;;4944682;28;20101;-77
2024/01/09 03:33:55;;;;;;;16.60;5.47;;;;;;;;;;4908559;29;20039;-77
2024/01/09 03:36:24;;;;;;;13.60;5.40;;;;;;;;;;4960325;28;20101;-78
2024/01/09 03:38:52;;;;;;;15.40;5.40;;;;;;;;;;4956324;28;20061;-77
2024/01/09 03:41:19;;;;;;;17.17;5.57;;;;;;;;;;4942906;28;20067;-77
2024/01/09 03:43:44;;;;;;;15.40;6.17;;;;;;;;;;4948546;29;20031;-77
2024/01/09 03:46:10;;;;;;;21.03;5.87;;;;;;;;;;4948503;28;20138;-77
2024/01/09 03:48:36;;;;;;;17.27;5.70;;;;;;;;;;4937434;28;20030;-77
2024/01/09 03:51:01;;;;;;;16.73;5.83;;;;;;;;;;4947339;28;20053;-78
2024/01/09 03:53:27;;;;;;;13.90;5.60;;;;;;;;;;4947329;28;20050;-78
2024/01/09 03:55:54;;;;;;;17.43;6.87;;;;;;;;;;4919353;28;20097;-79
2024/01/09 03:58:21;;;;;;;17.38;5.80;;;;;;;;;;4934083;29;20042;-78
2024/01/09 04:00:46;;;;;;;12.00;5.10;;;;;;;;;;4930137;28;20030;-78
2024/01/09 04:03:12;;;;;;;16.37;6.13;;;;;;;;;;4942362;28;20026;-79
2024/01/09 04:05:38;;;;;;;20.67;5.93;;;;;;;;;;4935644;28;20036;-78
2024/01/09 04:08:04;;;;;;;19.60;6.67;;;;;;;;;;4933557;28;20027;-78
2024/01/09 04:10:30;;;;;;;17.50;5.63;;;;;;;;;;4934729;28;20051;-78
2024/01/09 04:12:55;;;;;;;19.67;6.87;;;;;;;;;;4943644;28;20041;-78
2024/01/09 04:15:21;;;;;;;17.10;6.40;;;;;;;;;;4918537;28;20063;-78
2024/01/09 04:17:47;;;;;;;19.23;6.37;;;;;;;;;;4952832;28;20126;-78
2024/01/09 04:20:12;;;;;;;25.40;6.60;;;;;;;;;;4958026;29;20045;-78
2024/01/09 04:22:39;;;;;;;15.97;6.03;;;;;;;;;;4929664;28;20539;-77
2024/01/09 04:25:05;;;;;;;14.63;5.57;;;;;;;;;;4959166;29;20042;-78
2024/01/09 04:27:30;;;;;;;19.93;6.77;;;;;;;;;;4965024;28;20027;-78
2024/01/09 04:30:41;;;;;;;18.13;6.70;;;;;;;;;;4953973;29;20035;-78
2024/01/09 04:34:24;;;;;;;17.33;5.93;;;;;;;;;;4948231;29;20079;-78
2024/01/09 04:37:50;;;;;;;20.67;6.17;;;;;;;;;;4938605;29;20051;-78
2024/01/09 04:44:27;;;;;;;16.40;6.27;;;;;;;;;;5410275;23;20021;-79
2024/01/09 04:46:53;;;;;;;21.03;6.17;;;;;;;;;;4944264;28;20121;-78
2024/01/09 04:49:19;;;;;;;20.57;7.77;;;;;;;;;;4926136;28;20031;-78
2024/01/09 04:51:44;;;;;;;22.30;7.27;;;;;;;;;;4944371;28;20094;-78
2024/01/09 04:54:10;;;;;;;17.93;6.63;;;;;;;;;;4936112;29;20106;-79
2024/01/09 04:56:35;;;;;;;19.80;6.23;;;;;;;;;;4907139;29;20035;-77
2024/01/09 04:59:01;;;;;;;16.77;5.90;;;;;;;;;;4942806;29;20130;-78
2024/01/09 05:01:28;;;;;;;18.87;6.07;;;;;;;;;;4925529;29;20046;-77
2024/01/09 05:03:54;;;;;;;19.23;6.43;;;;;;;;;;4935097;29;20055;-78
2024/01/09 05:06:20;;;;;;;21.50;6.93;;;;;;;;;;4942696;29;20027;-78
2024/01/09 05:08:47;;;;;;;24.00;7.33;;;;;;;;;;4925468;29;20035;-78
2024/01/09 05:11:13;;;;;;;21.33;7.13;;;;;;;;;;4916869;29;20519;-77
2024/01/09 05:13:39;;;;;;;22.97;7.60;;;;;;;;;;4928174;29;20039;-78
2024/01/09 05:16:05;;;;;;;21.70;7.03;;;;;;;;;;4936549;29;20035;-77
2024/01/09 05:18:31;;;;;;;17.80;6.13;;;;;;;;;;4949671;29;20045;-78
2024/01/09 05:20:56;;;;;;;19.33;6.50;;;;;;;;;;4928636;29;20042;-77
2024/01/09 05:23:22;;;;;;;22.20;7.37;;;;;;;;;;4957013;29;20054;-77
2024/01/09 05:25:48;;;;;;;26.53;9.00;;;;;;;;;;4956697;29;20031;-78
2024/01/09 05:28:15;;;;;;;22.20;7.57;;;;;;;;;;4940290;29;20055;-78
2024/01/09 05:30:41;;;;;;;17.37;7.00;;;;;;;;;;4923378;29;20055;-79
2024/01/09 05:33:07;;;;;;;21.83;6.93;;;;;;;;;;4962758;29;20035;-77
2024/01/09 05:35:33;;;;;;;25.50;8.17;;;;;;;;;;4954321;29;20042;-78
2024/01/09 05:37:58;;;;;;;18.20;7.57;;;;;;;;;;4955268;29;20031;-77
2024/01/09 05:40:24;;;;;;;20.73;7.20;;;;;;;;;;4959098;29;20053;-79
2024/01/09 05:42:50;;;;;;;20.27;6.70;;;;;;;;;;4913139;29;20084;-78
2024/01/09 05:45:16;;;;;;;23.60;8.90;;;;;;;;;;4951443;29;20028;-77
2024/01/09 05:47:42;;;;;;;27.73;7.67;;;;;;;;;;4943489;29;20039;-78
2024/01/09 05:50:08;;;;;;;21.73;7.13;;;;;;;;;;4955626;29;20035;-77
2024/01/09 05:52:35;;;;;;;21.37;7.30;;;;;;;;;;4939512;29;20086;-79
2024/01/09 05:55:01;;;;;;;27.00;7.13;;;;;;;;;;4939117;29;20024;-77
2024/01/09 05:57:27;;;;;;;24.47;7.97;;;;;;;;;;4954132;29;20065;-79
2024/01/09 05:59:52;;;;;;;24.30;8.47;;;;;;;;;;4939686;29;20039;-78
2024/01/09 06:02:36;;;;;;;22.90;8.03;;;;;;;;;;4961683;29;20039;-78
2024/01/09 06:05:34;;;;;;;21.73;8.23;;;;;;;;;;4969119;29;20038;-80
2024/01/09 06:08:27;;;;;;;31.10;10.27;;;;;;;;;;4929347;29;20040;-78
2024/01/09 06:11:16;;;;;;;25.43;9.20;;;;;;;;;;4892328;29;20040;-78
2024/01/09 06:14:25;;;;;;;21.40;8.10;;;;;;;;;;4915693;29;20032;-79
2024/01/09 06:17:33;;;;;;;25.67;9.40;;;;;;;;;;4905724;29;20043;-79
2024/01/09 06:20:55;;;;;;;24.07;8.73;;;;;;;;;;4881194;29;20036;-78
2024/01/09 06:24:48;;;;;;;23.87;7.70;;;;;;;;;;4926072;29;20067;-78
2024/01/09 06:35:01;;;;;;;23.20;8.33;;;;;;;;;;4928158;29;20060;-79
2024/01/09 06:38:10;;;;;;;27.93;8.50;;;;;;;;;;4907001;29;20040;-78
2024/01/09 06:41:47;;;;;;;27.03;9.93;;;;;;;;;;4969216;29;20027;-78
2024/01/09 06:48:04;;;;;;;30.10;10.47;;;;;;;;;;4968892;29;20103;-77
2024/01/09 06:51:51;;;;;;;26.43;8.60;;;;;;;;;;4932919;29;20426;-79
2024/01/09 06:55:04;;;;;;;21.10;8.47;;;;;;;;;;4962922;29;20098;-78
2024/01/09 06:57:55;;;;;;;29.23;10.63;;;;;;;;;;4948630;29;20063;-77
2024/01/09 07:00:56;;;;;;;29.90;9.67;;;;;;;;;;4968086;29;20031;-77
2024/01/09 07:03:31;;;;;;;33.40;10.73;;;;;;;;;;4959763;29;20045;-77
2024/01/09 07:06:37;;;;;;;29.47;9.53;;;;;;;;;;4951611;29;20038;-77
2024/01/09 07:09:33;;;;;;;28.03;9.30;;;;;;;;;;4943957;29;20126;-77
2024/01/09 07:15:44;;;;;;;25.40;8.75;;;;;;;;;;5081809;23;20047;-78
2024/01/09 07:18:09;;;;;;;34.43;10.03;;;;;;;;;;4977665;28;20034;-77
2024/01/09 07:20:35;;;;;;;29.67;8.83;;;;;;;;;;4974289;28;20031;-78
2024/01/09 07:23:02;;;;;;;26.37;9.60;;;;;;;;;;4950909;28;20043;-78
2024/01/09 07:25:28;;;;;;;28.27;9.33;;;;;;;;;;4953728;28;20490;-78
2024/01/09 07:27:53;;;;;;;26.63;9.20;;;;;;;;;;4953485;28;20085;-78
2024/01/09 07:30:19;;;;;;;33.93;9.17;;;;;;;;;;4951309;28;20018;-79
2024/01/09 07:32:45;;;;;;;30.00;9.33;;;;;;;;;;4937562;28;20042;-78
2024/01/09 07:35:11;;;;;;;25.27;10.00;;;;;;;;;;4933915;28;20046;-78
2024/01/09 07:37:36;;;;;;;37.87;11.10;;;;;;;;;;4950892;28;20026;-79
2024/01/09 07:40:04;;;;;;;28.23;8.93;;;;;;;;;;4971890;28;20110;-79
2024/01/09 07:42:30;;;;;;;29.60;9.43;;;;;;;;;;4969817;28;20050;-78
2024/01/09 07:44:59;;;;;;;28.37;10.10;;;;;;;;;;4965959;28;20026;-79
2024/01/09 07:47:25;;;;;;;27.60;9.40;;;;;;;;;;4949664;28;20110;-78
2024/01/09 07:49:51;;;;;;;31.93;12.07;;;;;;;;;;4949922;28;20046;-77
2024/01/09 07:52:17;;;;;;;28.37;10.10;;;;;;;;;;4945114;29;20035;-77
2024/01/09 07:54:43;;;;;;;27.73;10.30;;;;;;;;;;4947274;29;20023;-76
2024/01/09 07:57:09;;;;;;;47.47;13.60;;;;;;;;;;4948743;29;20042;-79
2024/01/09 07:59:34;;;;;;;25.20;9.07;;;;;;;;;;4966576;29;20043;-78
2024/01/09 08:02:01;;;;;;;32.60;10.77;;;;;;;;;;4948690;28;20255;-77
2024/01/09 08:04:28;;;;;;;24.43;8.90;;;;;;;;;;4969552;28;20502;-77
2024/01/09 08:06:55;;;;;;;38.20;12.33;;;;;;;;;;4937534;28;20287;-80
2024/01/09 08:09:21;;;;;;;24.23;10.00;;;;;;;;;;4933540;29;20039;-79
2024/01/09 08:11:47;;;;;;;26.20;9.37;;;;;;;;;;4932955;29;20029;-81
2024/01/09 08:14:14;;;;;;;30.40;10.15;;;;;;;;;;4957850;28;20038;-80
2024/01/09 08:16:40;;;;;;;30.43;10.27;;;;;;;;;;4947187;28;20509;-80
2024/01/09 08:19:07;;;;;;;34.20;10.27;;;;;;;;;;4948074;28;20041;-80
2024/01/09 08:23:02;;;;;;;32.40;10.27;;;;;;;;;;4982443;28;20051;-79
2024/01/09 08:30:19;;;;;;;30.13;8.37;;;;;;;;;;4871777;29;20067;-78
2024/01/09 08:32:52;;;;;;;31.40;10.70;;;;;;;;;;4898412;28;20052;-77
2024/01/09 08:35:50;;;;;;;29.13;10.03;;;;;;;;;;4933225;28;20042;-77
2024/01/09 08:38:20;;;;;;;33.43;10.63;;;;;;;;;;4978477;28;20043;-77
2024/01/09 08:40:52;;;;;;;43.07;11.90;;;;;;;;;;4945791;28;20046;-77
2024/01/09 08:43:24;;;;;;;27.73;10.33;;;;;;;;;;4950500;28;20437;-78
2024/01/09 08:46:04;;;;;;;33.20;12.20;;;;;;;;;;4972990;28;20038;-78
2024/01/09 08:48:41;;;;;;;29.87;12.03;;;;;;;;;;4963647;28;20042;-78
2024/01/09 08:51:13;;;;;;;34.33;11.83;;;;;;;;;;4980633;28;20049;-77
2024/01/09 08:54:01;;;;;;;37.03;11.60;;;;;;;;;;4962148;28;20042;-77
2024/01/09 08:56:27;;;;;;;37.53;12.73;;;;;;;;;;4963064;28;20034;-77
2024/01/09 08:59:00;;;;;;;36.10;12.63;;;;;;;;;;4949864;28;20038;-78
2024/01/09 09:01:26;;;;;;;40.57;11.70;;;;;;;;;;4952701;28;20035;-77
2024/01/09 09:03:52;;;;;;;35.23;12.83;;;;;;;;;;4951690;28;20034;-77
2024/01/09 09:06:18;;;;;;;32.83;12.63;;;;;;;;;;4951298;28;20023;-78
2024/01/09 09:08:44;;;;;;;38.50;13.90;;;;;;;;;;4980744;28;20023;-77
2024/01/09 09:11:14;;;;;;;47.97;13.80;;;;;;;;;;4947313;28;20031;-79
2024/01/09 09:13:42;;;;;;;36.40;13.30;;;;;;;;;;4948917;28;20085;-77
2024/01/09 09:16:08;;;;;;;44.27;13.07;;;;;;;;;;4985769;28;20065;-78
2024/01/09 09:18:34;;;;;;;38.67;13.17;;;;;;;;;;4953625;28;20047;-77
2024/01/09 09:21:03;;;;;;;34.27;12.57;;;;;;;;;;4951856;28;20061;-76
2024/01/09 09:23:29;;;;;;;39.67;13.77;;;;;;;;;;4950821;28;20039;-77
2024/01/09 09:25:55;;;;;;;40.63;12.83;;;;;;;;;;4952454;28;20026;-77
2024/01/09 09:28:22;;;;;;;44.80;15.03;;;;;;;;;;4951990;28;20075;-79
2024/01/09 09:30:48;;;;;;;37.40;13.90;;;;;;;;;;4954515;28;20035;-78
2024/01/09 09:33:13;;;;;;;38.40;13.90;;;;;;;;;;4953460;28;20124;-77
2024/01/09 09:35:39;;;;;;;40.83;14.37;;;;;;;;;;4966458;28;20393;-78
2024/01/09 09:38:05;;;;;;;41.57;12.90;;;;;;;;;;4935327;28;20033;-77
2024/01/09 09:40:31;;;;;;;40.47;13.90;;;;;;;;;;4934609;28;20477;-78
2024/01/09 09:42:59;;;;;;;43.70;13.90;;;;;;;;;;4952324;28;20039;-78
2024/01/09 09:45:25;;;;;;;36.70;13.32;;;;;;;;;;4968820;28;20041;-78
2024/01/09 09:47:53;;;;;;;36.67;14.37;;;;;;;;;;4968603;28;20498;-78
2024/01/09 09:50:20;;;;;;;23.50;8.55;;;;;;;;;;4968984;28;20119;-77
2024/01/09 09:52:47;;;;;;;36.47;13.15;;;;;;;;;;4967592;28;20052;-77
2024/01/09 09:55:13;;;;;;;37.23;12.93;;;;;;;;;;4949151;28;20043;-77
2024/01/09 09:57:39;;;;;;;38.10;14.23;;;;;;;;;;4965641;28;20034;-77
2024/01/09 10:00:05;;;;;;;39.03;13.87;;;;;;;;;;4934736;28;20106;-78
2024/01/09 10:02:33;;;;;;;41.13;13.73;;;;;;;;;;4953164;28;20046;-78
2024/01/09 10:05:10;;;;;;;43.10;14.13;;;;;;;;;;4974099;28;20042;-77
2024/01/09 10:07:37;;;;;;;39.10;13.77;;;;;;;;;;4955030;28;20121;-77
2024/01/09 10:10:05;;;;;;;35.33;14.17;;;;;;;;;;4956794;28;20037;-77
2024/01/09 10:12:31;;;;;;;42.40;13.13;;;;;;;;;;4942600;28;20047;-77
2024/01/09 10:15:08;;;;;;;36.70;12.50;;;;;;;;;;4958690;28;20042;-77
2024/01/09 10:17:37;;;;;;;40.67;13.80;;;;;;;;;;4974957;28;20055;-78
2024/01/09 10:20:04;;;;;;;37.57;13.83;;;;;;;;;;4975620;28;20034;-77
2024/01/09 10:22:35;;;;;;;37.80;14.07;;;;;;;;;;4958276;28;20102;-77
2024/01/09 10:25:10;;;;;;;44.67;13.33;;;;;;;;;;4940277;28;20236;-79
2024/01/09 10:27:36;;;;;;;39.00;13.83;;;;;;;;;;4956809;28;20561;-78
2024/01/09 10:30:05;;;;;;;35.57;13.20;;;;;;;;;;4950878;28;20046;-77
2024/01/09 10:32:32;;;;;;;37.47;12.10;;;;;;;;;;4934572;28;20062;-77
2024/01/09 10:34:57;;;;;;;33.43;13.03;;;;;;;;;;4965575;28;20175;-77
2024/01/09 10:37:23;;;;;;;43.47;13.53;;;;;;;;;;4936969;28;20034;-78
2024/01/09 10:39:52;;;;;;;46.17;14.10;;;;;;;;;;4950912;28;20050;-78
2024/01/09 10:42:18;;;;;;;45.28;14.85;;;;;;;;;;4965993;28;20118;-77
2024/01/09 10:44:49;;;;;;;40.47;12.57;;;;;;;;;;4950351;28;20065;-77
2024/01/09 10:47:17;;;;;;;32.23;13.20;;;;;;;;;;4967444;28;20079;-77
2024/01/09 10:49:43;;;;;;;43.03;14.50;;;;;;;;;;4934831;28;20023;-78
2024/01/09 10:52:16;;;;;;;37.43;14.07;;;;;;;;;;4951351;28;20081;-78
2024/01/09 10:54:43;;;;;;;34.57;14.13;;;;;;;;;;4951693;28;20034;-76
2024/01/09 10:57:11;;;;;;;42.58;15.52;;;;;;;;;;4951001;28;20033;-77
2024/01/09 10:59:38;;;;;;;40.30;14.00;;;;;;;;;;4951822;28;20552;-77
2024/01/09 11:02:04;;;;;;;46.00;14.13;;;;;;;;;;4968452;28;20050;-78
2024/01/09 11:04:29;;;;;;;56.63;15.47;;;;;;;;;;4950360;28;20041;-78
2024/01/09 11:06:55;;;;;;;42.77;14.00;;;;;;;;;;4950636;28;20090;-77
2024/01/09 11:09:22;;;;;;;45.53;15.57;;;;;;;;;;4968797;28;20078;-77
2024/01/09 11:11:48;;;;;;;34.53;14.50;;;;;;;;;;4936928;28;20045;-77
2024/01/09 11:14:15;;;;;;;36.53;12.90;;;;;;;;;;4950742;28;20386;-78
2024/01/09 11:16:43;;;;;;;41.67;13.37;;;;;;;;;;4952189;28;20464;-78
2024/01/09 11:19:11;;;;;;;38.20;13.07;;;;;;;;;;4953127;28;20031;-78
2024/01/09 11:21:37;;;;;;;44.67;13.95;;;;;;;;;;4934848;28;20126;-78
2024/01/09 11:24:03;;;;;;;39.17;14.00;;;;;;;;;;4966427;28;20540;-77
2024/01/09 11:26:32;;;;;;;33.87;12.33;;;;;;;;;;4964795;28;20030;-77
2024/01/09 11:28:59;;;;;;;42.80;14.13;;;;;;;;;;4949672;28;20104;-78
2024/01/09 11:31:27;;;;;;;42.83;13.77;;;;;;;;;;4966201;28;20175;-75
2024/01/09 11:33:54;;;;;;;37.93;14.33;;;;;;;;;;4984987;28;20034;-78
2024/01/09 11:36:22;;;;;;;42.17;13.13;;;;;;;;;;4935269;28;20030;-77
2024/01/09 11:38:50;;;;;;;38.10;15.07;;;;;;;;;;4948636;28;20125;-78
2024/01/09 11:41:16;;;;;;;39.23;13.93;;;;;;;;;;4949903;28;20039;-77
2024/01/09 11:43:58;;;;;;;45.13;13.67;;;;;;;;;;4934744;28;20556;-78
2024/01/09 11:46:24;;;;;;;48.33;15.07;;;;;;;;;;4935150;28;20089;-78
2024/01/09 11:48:50;;;;;;;36.53;14.53;;;;;;;;;;4936511;28;20031;-76
2024/01/09 11:51:17;;;;;;;40.47;14.87;;;;;;;;;;4938271;28;20533;-77
2024/01/09 11:53:43;;;;;;;32.37;13.67;;;;;;;;;;4952064;28;20046;-76
2024/01/09 11:56:13;;;;;;;37.73;13.23;;;;;;;;;;4967076;28;20050;-78
2024/01/09 11:58:39;;;;;;;44.97;14.53;;;;;;;;;;4948049;28;20066;-76
2024/01/09 12:01:06;;;;;;;41.17;14.10;;;;;;;;;;4932086;28;20046;-77
2024/01/09 12:03:34;;;;;;;38.53;14.27;;;;;;;;;;4946400;28;20070;-77
2024/01/09 12:06:01;;;;;;;38.45;14.98;;;;;;;;;;4963722;28;20574;-78
2024/01/09 12:08:28;;;;;;;38.87;14.43;;;;;;;;;;4948610;28;20066;-77
2024/01/09 12:10:54;;;;;;;43.43;13.73;;;;;;;;;;4931860;28;20034;-77
2024/01/09 12:13:21;;;;;;;38.07;14.17;;;;;;;;;;4934309;28;20037;-76
2024/01/09 12:15:47;;;;;;;37.40;13.77;;;;;;;;;;4966804;28;20510;-78
2024/01/09 12:18:12;;;;;;;41.50;14.50;;;;;;;;;;4950476;28;20039;-77
2024/01/09 12:20:38;;;;;;;46.57;15.87;;;;;;;;;;4969535;28;20035;-77
2024/01/09 12:23:05;;;;;;;36.43;14.33;;;;;;;;;;4954499;28;20102;-77
2024/01/09 12:25:30;;;;;;;39.73;14.37;;;;;;;;;;4969909;28;20082;-76
2024/01/09 12:27:57;;;;;;;45.93;15.47;;;;;;;;;;4970258;28;20046;-77
2024/01/09 12:30:23;;;;;;;42.73;15.43;;;;;;;;;;4970657;28;20026;-77
2024/01/09 12:32:48;;;;;;;44.67;15.37;;;;;;;;;;4968914;28;20042;-77
2024/01/09 12:35:14;;;;;;;48.33;15.43;;;;;;;;;;4960656;28;20086;-77
2024/01/09 12:37:40;;;;;;;38.90;14.40;;;;;;;;;;4992730;28;20037;-76
2024/01/09 12:40:09;;;;;;;43.17;14.53;;;;;;;;;;4980554;28;20057;-77
2024/01/09 12:42:35;;;;;;;50.47;15.47;;;;;;;;;;4961141;23;20067;-76
2024/01/09 12:45:01;;;;;;;37.23;14.03;;;;;;;;;;4926790;29;20023;-77
2024/01/09 12:47:28;;;;;;;43.30;14.77;;;;;;;;;;4928266;29;20032;-77
2024/01/09 12:49:54;;;;;;;43.13;14.37;;;;;;;;;;4930266;29;20043;-77
2024/01/09 12:52:21;;;;;;;41.90;14.70;;;;;;;;;;4935145;29;20035;-75
2024/01/09 12:54:47;;;;;;;41.20;13.53;;;;;;;;;;4933197;29;20024;-76
2024/01/09 12:57:13;;;;;;;33.77;13.93;;;;;;;;;;4948406;29;20040;-76
2024/01/09 12:59:42;;;;;;;41.00;13.63;;;;;;;;;;4942168;29;20024;-76
2024/01/09 13:02:08;;;;;;;34.45;14.07;;;;;;;;;;4926087;29;20082;-76
2024/01/09 13:04:34;;;;;;;39.53;14.25;;;;;;;;;;4925498;29;20040;-75
2024/01/09 13:07:01;;;;;;;39.97;15.32;;;;;;;;;;4924212;29;20032;-76
2024/01/09 13:09:27;;;;;;;41.20;15.15;;;;;;;;;;4908611;29;20051;-77
2024/01/09 13:11:53;;;;;;;41.42;14.75;;;;;;;;;;4910400;29;20035;-76
2024/01/09 13:14:19;;;;;;;37.20;14.48;;;;;;;;;;4908388;29;20042;-77
2024/01/09 13:16:45;;;;;;;36.13;14.65;;;;;;;;;;4925135;29;20028;-78
2024/01/09 13:19:10;;;;;;;39.72;14.70;;;;;;;;;;4938866;29;20032;-77
2024/01/09 13:21:36;;;;;;;40.50;15.95;;;;;;;;;;4924155;29;20483;-76
2024/01/09 13:24:02;;;;;;;42.45;16.38;;;;;;;;;;4923351;29;20065;-76
2024/01/09 13:26:28;;;;;;;38.58;14.48;;;;;;;;;;4924043;29;20484;-76
2024/01/09 13:28:53;;;;;;;49.28;17.35;;;;;;;;;;4924850;29;20038;-77
2024/01/09 13:31:19;;;;;;;36.90;16.38;;;;;;;;;;4941851;29;20031;-76
2024/01/09 13:33:45;;;;;;;36.30;15.32;;;;;;;;;;4924480;29;20542;-76
2024/01/09 13:36:10;;;;;;;41.00;15.57;;;;;;;;;;4913205;29;20036;-76
2024/01/09 13:38:37;;;;;;;42.38;17.20;;;;;;;;;;4949018;29;20407;-77
2024/01/09 13:41:04;;;;;;;42.53;14.50;;;;;;;;;;4930063;29;20043;-76
2024/01/09 13:43:31;;;;;;;38.47;14.77;;;;;;;;;;4930914;29;20103;-76
2024/01/09 13:45:58;;;;;;;37.47;15.30;;;;;;;;;;4933904;29;20035;-76
2024/01/09 13:48:24;;;;;;;37.90;15.35;;;;;;;;;;4929369;29;20028;-75
2024/01/09 13:50:50;;;;;;;45.53;16.15;;;;;;;;;;4926178;29;20087;-76
2024/01/09 13:53:15;;;;;;;39.72;15.50;;;;;;;;;;4909509;29;20042;-76
2024/01/09 13:55:41;;;;;;;35.75;14.90;;;;;;;;;;4924566;29;20042;-76
2024/01/09 13:58:07;;;;;;;37.85;15.82;;;;;;;;;;4941777;29;20043;-77
2024/01/09 14:00:33;;;;;;;40.35;15.18;;;;;;;;;;4911064;29;20043;-75
2024/01/09 14:03:00;;;;;;;43.50;15.93;;;;;;;;;;4912443;29;20051;-76
2024/01/09 14:05:28;;;;;;;38.38;14.38;;;;;;;;;;4931331;29;20063;-76
2024/01/09 14:07:54;;;;;;;38.83;15.80;;;;;;;;;;4933120;29;20501;-76
2024/01/09 14:10:21;;;;;;;34.25;15.02;;;;;;;;;;4943456;29;20110;-76
2024/01/09 14:12:48;;;;;;;36.63;14.55;;;;;;;;;;4945635;29;20032;-75
2024/01/09 14:15:16;;;;;;;34.83;14.68;;;;;;;;;;4930275;29;20114;-77
2024/01/09 14:17:42;;;;;;;41.33;15.20;;;;;;;;;;4928479;29;20126;-77
2024/01/09 14:20:08;;;;;;;39.40;16.10;;;;;;;;;;4926433;29;20036;-76
2024/01/09 14:22:35;;;;;;;39.63;14.18;;;;;;;;;;4909532;29;20035;-77
2024/01/09 14:25:02;;;;;;;33.92;13.27;;;;;;;;;;4925534;29;20468;-77
2024/01/09 14:27:28;;;;;;;39.38;13.23;;;;;;;;;;4924495;29;20059;-76
2024/01/09 14:29:55;;;;;;;37.58;14.23;;;;;;;;;;4908079;29;20036;-76
2024/01/09 14:32:20;;;;;;;37.80;14.50;;;;;;;;;;4924653;29;20035;-75
2024/01/09 14:34:46;;;;;;;38.95;13.88;;;;;;;;;;4922217;29;20122;-76
2024/01/09 14:37:13;;;;;;;39.60;13.90;;;;;;;;;;4908266;29;20031;-75
2024/01/09 14:39:40;;;;;;;38.47;15.23;;;;;;;;;;4939236;29;20039;-76
2024/01/09 14:42:05;;;;;;;41.30;14.20;;;;;;;;;;4907322;29;20035;-76
2024/01/09 14:44:31;;;;;;;44.88;14.43;;;;;;;;;;4922296;29;20036;-77
2024/01/09 14:47:01;;;;;;;34.73;13.33;;;;;;;;;;4924624;29;20027;-78
2024/01/09 14:49:29;;;;;;;37.70;13.87;;;;;;;;;;4941084;29;20376;-77
2024/01/09 14:54:48;;;;;;;31.57;13.57;;;;;;;;;;4923661;29;20032;-78
2024/01/09 14:57:14;;;;;;;38.63;14.37;;;;;;;;;;4939124;29;20028;-77
2024/01/09 14:59:46;;;;;;;42.47;13.23;;;;;;;;;;4937317;29;20498;-77
2024/01/09 15:02:12;;;;;;;33.87;13.90;;;;;;;;;;4938895;29;20145;-77
2024/01/09 15:04:44;;;;;;;39.87;13.27;;;;;;;;;;4908457;29;20028;-77
2024/01/09 15:07:11;;;;;;;38.73;14.27;;;;;;;;;;4907685;29;20043;-76
2024/01/09 15:09:37;;;;;;;43.43;15.13;;;;;;;;;;4907154;29;20514;-76
2024/01/09 15:12:03;;;;;;;34.83;14.23;;;;;;;;;;4907083;29;20035;-76
2024/01/09 15:18:06;;;;;;;38.17;13.03;;;;;;;;;;4923075;29;20115;-77
2024/01/09 15:20:31;;;;;;;37.00;13.70;;;;;;;;;;4923581;29;20038;-76
2024/01/09 15:23:04;;;;;;;37.83;12.97;;;;;;;;;;4907470;29;20044;-77
2024/01/09 15:25:59;;;;;;;38.00;13.03;;;;;;;;;;4938985;29;20144;-76
2024/01/09 15:28:25;;;;;;;33.90;13.33;;;;;;;;;;4924273;29;20056;-77
2024/01/09 15:30:54;;;;;;;42.50;13.75;;;;;;;;;;4927619;29;20032;-77